Time;durP1;ratioP1;P1;durP2;ratioP2;P2;SDS_P1;SDS_P2;PMS_P1;PMS_P2;Temp;Humidity;BMP_temperature;BMP_pressure;BME280_temperature;BME280_humidity;BME280_pressure;Samples;Min_cycle;Max_cycle;Signal;HPM_P1;HPM_P2
2023/12/17 00:01:52;;;;;;;34.63;17.88;;;10.00;99.90;;;;;;5084437;28;20032;-80
2023/12/17 00:04:19;;;;;;;37.50;17.38;;;10.00;99.90;;;;;;5087928;27;20028;-80
2023/12/17 00:06:45;;;;;;;25.58;12.80;;;10.00;99.90;;;;;;5071988;27;20046;-81
2023/12/17 00:09:11;;;;;;;28.70;14.88;;;10.00;99.90;;;;;;5090327;27;20046;-79
2023/12/17 00:11:41;;;;;;;30.45;15.02;;;10.00;99.90;;;;;;5055116;28;20643;-74
2023/12/17 00:14:10;;;;;;;25.27;13.10;;;10.00;99.90;;;;;;5073214;28;20036;-80
2023/12/17 00:16:37;;;;;;;21.55;12.13;;;10.00;99.90;;;;;;5057266;27;20520;-81
2023/12/17 00:19:03;;;;;;;27.92;14.57;;;10.00;99.90;;;;;;5093165;27;20039;-80
2023/12/17 00:21:30;;;;;;;27.40;13.00;;;10.00;99.90;;;;;;5054328;28;20382;-81
2023/12/17 00:23:56;;;;;;;26.48;12.90;;;10.00;99.90;;;;;;5053257;27;20078;-79
2023/12/17 00:26:22;;;;;;;22.35;11.23;;;10.00;99.90;;;;;;5052658;28;20395;-77
2023/12/17 00:28:48;;;;;;;20.85;11.15;;;10.00;99.90;;;;;;5070923;28;20036;-80
2023/12/17 00:31:15;;;;;;;22.15;11.18;;;10.00;99.90;;;;;;5070297;27;20121;-81
2023/12/17 00:33:41;;;;;;;22.10;11.52;;;10.00;99.90;;;;;;5091482;28;20027;-81
2023/12/17 00:36:08;;;;;;;19.38;11.07;;;10.00;99.90;;;;;;5056413;28;20054;-79
2023/12/17 00:38:34;;;;;;;21.10;10.65;;;10.00;99.90;;;;;;5057417;28;20046;-82
2023/12/17 00:41:01;;;;;;;20.58;10.48;;;10.00;99.90;;;;;;5091184;28;20027;-81
2023/12/17 00:43:27;;;;;;;21.50;11.50;;;10.00;99.90;;;;;;5039489;28;20039;-75
2023/12/17 00:45:53;;;;;;;21.10;11.27;;;10.00;99.90;;;;;;5091512;28;20454;-80
2023/12/17 00:48:19;;;;;;;19.65;11.32;;;10.00;99.90;;;;;;5054313;28;20019;-80
2023/12/17 00:50:46;;;;;;;18.90;9.52;;;10.00;99.90;;;;;;5089857;28;20035;-79
2023/12/17 00:53:12;;;;;;;18.35;10.60;;;10.00;99.90;;;;;;5090895;28;20479;-80
2023/12/17 00:55:39;;;;;;;18.35;10.57;;;9.90;99.90;;;;;;5070231;28;20474;-82
2023/12/17 00:58:05;;;;;;;20.92;11.43;;;10.00;99.90;;;;;;5053779;28;20418;-77
2023/12/17 01:00:31;;;;;;;19.05;10.38;;;10.00;99.90;;;;;;5068049;28;20042;-77
2023/12/17 01:02:58;;;;;;;15.60;8.65;;;9.90;99.90;;;;;;5070303;28;20043;-81
2023/12/17 01:05:24;;;;;;;17.77;10.07;;;10.00;99.90;;;;;;5052834;28;20398;-79
2023/12/17 01:07:50;;;;;;;14.85;9.10;;;9.90;99.90;;;;;;5070618;28;20019;-83
2023/12/17 01:10:17;;;;;;;15.38;9.15;;;9.90;99.90;;;;;;5071608;28;20034;-79
2023/12/17 01:12:43;;;;;;;15.15;9.93;;;9.90;99.90;;;;;;5074900;27;20028;-76
2023/12/17 01:15:10;;;;;;;19.20;9.52;;;9.90;99.90;;;;;;5060924;27;20047;-81
2023/12/17 01:17:37;;;;;;;18.17;10.02;;;9.90;99.90;;;;;;5061007;27;20422;-78
2023/12/17 01:20:04;;;;;;;13.15;8.35;;;9.90;99.90;;;;;;5058997;27;20042;-82
2023/12/17 01:22:30;;;;;;;18.05;9.43;;;9.90;99.90;;;;;;5074165;28;20035;-81
2023/12/17 01:24:56;;;;;;;15.25;8.02;;;9.90;99.90;;;;;;5074353;28;20036;-78
2023/12/17 01:27:23;;;;;;;18.50;9.55;;;9.90;99.90;;;;;;5092466;27;20043;-79
2023/12/17 01:29:49;;;;;;;16.90;9.73;;;9.90;99.90;;;;;;5107801;27;20063;-81
2023/12/17 01:32:15;;;;;;;19.27;10.60;;;9.90;99.90;;;;;;5074225;27;20054;-79
2023/12/17 01:34:42;;;;;;;20.85;10.73;;;9.90;99.90;;;;;;5072625;27;20035;-74
2023/12/17 01:37:08;;;;;;;21.67;11.50;;;9.90;99.90;;;;;;5058835;28;20055;-80
2023/12/17 01:39:34;;;;;;;19.80;10.80;;;9.90;99.90;;;;;;5073791;28;20478;-80
2023/12/17 01:42:00;;;;;;;20.02;10.60;;;9.90;99.90;;;;;;5076202;27;20027;-82
2023/12/17 01:44:27;;;;;;;22.08;11.38;;;9.90;99.90;;;;;;5060260;27;20035;-80
2023/12/17 01:46:53;;;;;;;19.05;11.35;;;9.90;99.90;;;;;;5091462;27;20028;-76
2023/12/17 01:49:19;;;;;;;20.98;11.25;;;9.90;99.90;;;;;;5094362;27;20381;-81
2023/12/17 01:51:46;;;;;;;19.88;11.45;;;9.90;99.90;;;;;;5074475;28;20046;-81
2023/12/17 01:54:12;;;;;;;20.83;12.00;;;9.90;99.90;;;;;;5065621;27;20046;-81
2023/12/17 01:56:39;;;;;;;16.58;9.75;;;9.90;99.90;;;;;;5077511;28;20046;-82
2023/12/17 01:59:06;;;;;;;21.45;11.57;;;9.90;99.90;;;;;;5075032;28;20040;-80
2023/12/17 02:01:32;;;;;;;18.73;10.93;;;9.90;99.90;;;;;;5074011;28;20035;-78
2023/12/17 02:03:58;;;;;;;15.40;9.85;;;9.90;99.90;;;;;;5072284;27;20490;-81
2023/12/17 02:06:25;;;;;;;15.43;9.23;;;9.90;99.90;;;;;;5054465;27;20031;-80
2023/12/17 02:08:51;;;;;;;13.25;8.35;;;9.90;99.90;;;;;;5071909;28;20052;-75
2023/12/17 02:11:17;;;;;;;17.75;10.07;;;9.90;99.90;;;;;;5075543;28;20478;-79
2023/12/17 02:13:44;;;;;;;15.68;8.73;;;9.90;99.90;;;;;;5090907;27;20382;-80
2023/12/17 02:16:10;;;;;;;19.95;11.07;;;9.90;99.90;;;;;;5093807;27;20020;-83
2023/12/17 02:18:36;;;;;;;17.63;10.10;;;9.90;99.90;;;;;;5075017;27;20047;-80
2023/12/17 02:21:03;;;;;;;13.50;8.75;;;9.90;99.90;;;;;;5071559;28;20031;-82
2023/12/17 02:23:29;;;;;;;18.17;9.75;;;9.90;99.90;;;;;;5057624;28;20032;-80
2023/12/17 02:25:56;;;;;;;17.35;11.02;;;9.90;99.90;;;;;;5072593;27;20024;-80
2023/12/17 02:28:22;;;;;;;15.45;8.45;;;9.90;99.90;;;;;;5072060;28;20040;-80
2023/12/17 02:30:48;;;;;;;13.05;8.38;;;9.90;99.90;;;;;;5056291;28;20054;-82
2023/12/17 02:33:14;;;;;;;15.20;8.88;;;9.90;99.90;;;;;;5072805;28;20035;-81
2023/12/17 02:35:41;;;;;;;16.65;9.73;;;9.90;99.90;;;;;;5070252;27;20493;-81
2023/12/17 02:38:07;;;;;;;15.55;9.48;;;9.90;99.90;;;;;;5075783;28;20059;-78
2023/12/17 02:40:33;;;;;;;16.90;9.55;;;9.90;99.90;;;;;;5061456;27;20032;-81
2023/12/17 02:43:00;;;;;;;13.80;8.70;;;9.90;99.90;;;;;;5056786;28;20035;-81
2023/12/17 02:45:26;;;;;;;19.15;9.85;;;9.90;99.90;;;;;;5072663;28;20036;-82
2023/12/17 02:47:52;;;;;;;14.00;8.73;;;9.90;99.90;;;;;;5073068;28;20027;-81
2023/12/17 02:50:19;;;;;;;17.00;9.40;;;9.80;99.90;;;;;;5092060;27;20403;-80
2023/12/17 02:52:45;;;;;;;16.10;8.98;;;9.80;99.90;;;;;;5073605;28;20032;-79
2023/12/17 02:55:11;;;;;;;17.38;10.40;;;9.90;99.90;;;;;;5061785;28;20462;-81
2023/12/17 02:57:38;;;;;;;13.20;9.07;;;9.90;99.90;;;;;;5091296;27;20063;-80
2023/12/17 03:00:06;;;;;;;12.48;8.30;;;9.80;99.90;;;;;;5056110;28;20039;-77
2023/12/17 03:02:32;;;;;;;17.42;9.70;;;9.90;99.90;;;;;;5071970;27;20023;-78
2023/12/17 03:04:58;;;;;;;17.65;10.00;;;9.90;99.90;;;;;;5091260;27;20489;-83
2023/12/17 03:07:25;;;;;;;19.63;10.38;;;9.90;99.90;;;;;;5073467;28;20046;-73
2023/12/17 03:09:54;;;;;;;19.45;11.65;;;9.80;99.90;;;;;;5089386;27;20036;-81
2023/12/17 03:12:21;;;;;;;19.42;10.05;;;9.90;99.90;;;;;;5058848;28;20032;-75
2023/12/17 03:14:47;;;;;;;17.48;9.60;;;9.90;99.90;;;;;;5054858;28;20023;-79
2023/12/17 03:17:13;;;;;;;19.67;10.63;;;9.90;99.90;;;;;;5041552;28;20046;-82
2023/12/17 03:19:40;;;;;;;22.45;12.90;;;9.90;99.90;;;;;;5074499;27;20038;-76
2023/12/17 03:22:06;;;;;;;21.85;12.07;;;9.80;99.90;;;;;;5055765;28;20031;-79
2023/12/17 03:24:33;;;;;;;21.85;12.43;;;9.90;99.90;;;;;;5073899;27;20035;-76
2023/12/17 03:26:59;;;;;;;21.83;12.57;;;9.90;99.90;;;;;;5091395;27;20038;-80
2023/12/17 03:29:25;;;;;;;15.57;10.23;;;9.90;99.90;;;;;;5056183;27;20047;-81
2023/12/17 03:31:52;;;;;;;23.08;12.45;;;9.90;99.90;;;;;;5088751;27;20032;-77
2023/12/17 03:34:18;;;;;;;17.77;10.70;;;9.90;99.90;;;;;;5090180;27;20470;-81
2023/12/17 03:36:44;;;;;;;25.08;13.13;;;9.90;99.90;;;;;;5071874;27;20031;-78
2023/12/17 03:39:12;;;;;;;25.48;14.57;;;9.90;99.90;;;;;;5045072;27;20036;-80
2023/12/17 03:41:38;;;;;;;24.15;13.48;;;9.90;99.90;;;;;;5093544;27;20053;-82
2023/12/17 03:44:05;;;;;;;22.90;13.30;;;9.90;99.90;;;;;;5057204;28;20027;-80
2023/12/17 03:46:31;;;;;;;24.45;12.57;;;9.90;99.90;;;;;;5057740;28;20039;-81
2023/12/17 03:48:57;;;;;;;25.77;13.75;;;9.90;99.90;;;;;;5091849;27;20098;-80
2023/12/17 03:51:24;;;;;;;22.65;11.48;;;9.90;99.90;;;;;;5091357;27;20035;-84
2023/12/17 03:53:50;;;;;;;19.80;11.93;;;9.90;99.90;;;;;;5039007;28;20042;-83
2023/12/17 03:56:17;;;;;;;23.88;11.93;;;9.90;99.90;;;;;;5073772;28;20035;-80
2023/12/17 03:58:43;;;;;;;23.75;12.52;;;9.90;99.90;;;;;;5055623;28;20043;-77
2023/12/17 04:01:10;;;;;;;20.55;12.07;;;9.90;99.90;;;;;;5072057;28;21410;-83
2023/12/17 04:03:36;;;;;;;20.70;11.27;;;9.90;99.90;;;;;;5071987;28;20509;-80
2023/12/17 04:06:05;;;;;;;23.67;12.07;;;9.90;99.90;;;;;;5057308;27;20031;-83
2023/12/17 04:08:32;;;;;;;21.85;14.05;;;9.90;99.90;;;;;;5073168;27;20035;-82
2023/12/17 04:10:58;;;;;;;20.48;12.48;;;9.80;99.90;;;;;;5055218;28;20042;-84
2023/12/17 04:13:25;;;;;;;22.60;12.98;;;9.80;99.90;;;;;;5040298;28;20043;-79
2023/12/17 04:15:51;;;;;;;20.10;11.27;;;9.90;99.90;;;;;;5070858;28;20482;-78
2023/12/17 04:18:17;;;;;;;19.23;11.13;;;9.90;99.90;;;;;;5074752;28;20039;-79
2023/12/17 04:20:44;;;;;;;16.88;9.55;;;9.90;99.90;;;;;;5053497;28;20557;-83
2023/12/17 04:23:10;;;;;;;15.73;9.43;;;9.90;99.90;;;;;;5071511;28;20492;-81
2023/12/17 04:25:36;;;;;;;18.10;9.27;;;9.90;99.90;;;;;;5074725;28;20046;-78
2023/12/17 04:28:03;;;;;;;14.95;8.52;;;9.90;99.90;;;;;;5056513;28;20040;-82
2023/12/17 04:30:30;;;;;;;16.05;8.02;;;9.90;99.90;;;;;;5042651;28;20042;-81
2023/12/17 04:32:56;;;;;;;13.50;8.25;;;9.90;99.90;;;;;;5075269;28;20109;-81
2023/12/17 04:35:23;;;;;;;13.15;7.65;;;9.80;99.90;;;;;;5073444;28;20470;-83
2023/12/17 04:37:49;;;;;;;13.77;7.80;;;9.80;99.90;;;;;;5055316;28;20040;-76
2023/12/17 04:40:16;;;;;;;14.68;7.60;;;9.80;99.90;;;;;;5057383;28;20031;-80
2023/12/17 04:42:42;;;;;;;12.57;7.47;;;9.80;99.90;;;;;;5053618;28;20050;-80
2023/12/17 04:45:09;;;;;;;14.55;7.28;;;9.90;99.90;;;;;;5092966;28;20035;-85
2023/12/17 04:47:35;;;;;;;15.57;8.68;;;9.80;99.90;;;;;;5062558;27;20027;-84
2023/12/17 04:50:02;;;;;;;12.77;7.75;;;9.80;99.90;;;;;;5099685;27;20031;-75
2023/12/17 04:52:28;;;;;;;16.08;8.70;;;9.80;99.90;;;;;;5061007;28;20729;-81
2023/12/17 04:54:55;;;;;;;19.15;10.55;;;9.80;99.90;;;;;;5059028;28;20031;-80
2023/12/17 04:57:21;;;;;;;21.55;11.20;;;9.80;99.90;;;;;;5075157;28;20495;-81
2023/12/17 04:59:47;;;;;;;18.45;10.55;;;9.80;99.90;;;;;;5074090;27;20044;-81
2023/12/17 05:02:13;;;;;;;18.83;10.85;;;9.80;99.90;;;;;;5074695;28;20474;-77
2023/12/17 05:04:40;;;;;;;17.40;10.77;;;9.80;99.90;;;;;;5076590;28;20034;-84
2023/12/17 05:07:06;;;;;;;19.10;11.43;;;9.70;99.90;;;;;;5061229;27;20470;-80
2023/12/17 05:09:32;;;;;;;17.95;10.32;;;9.70;99.90;;;;;;5078386;27;20035;-80
2023/12/17 05:11:59;;;;;;;21.17;12.48;;;9.70;99.90;;;;;;5066179;28;20036;-81
2023/12/17 05:14:25;;;;;;;19.20;13.18;;;9.70;99.90;;;;;;5060869;28;20502;-78
2023/12/17 05:16:51;;;;;;;19.92;11.57;;;9.70;99.90;;;;;;5065156;27;20066;-80
2023/12/17 05:19:18;;;;;;;24.70;12.23;;;9.70;99.90;;;;;;5077662;27;20050;-81
2023/12/17 05:21:44;;;;;;;20.80;11.40;;;9.70;99.90;;;;;;5077084;27;20032;-82
2023/12/17 05:24:10;;;;;;;21.85;12.93;;;9.70;99.90;;;;;;5074581;28;20028;-85
2023/12/17 05:26:37;;;;;;;32.92;15.85;;;9.70;99.90;;;;;;5089769;27;20040;-76
2023/12/17 05:29:03;;;;;;;28.85;14.50;;;9.80;99.90;;;;;;5094155;28;20437;-80
2023/12/17 05:31:29;;;;;;;36.70;18.60;;;9.70;99.90;;;;;;5074966;27;20035;-82
2023/12/17 05:33:55;;;;;;;29.52;15.48;;;9.80;99.90;;;;;;5057155;28;20630;-83
2023/12/17 05:36:22;;;;;;;33.60;17.85;;;9.70;99.90;;;;;;5093604;27;20019;-75
2023/12/17 05:38:48;;;;;;;33.70;19.55;;;9.70;99.90;;;;;;5106431;27;20471;-84
2023/12/17 05:41:15;;;;;;;33.92;18.17;;;9.70;99.90;;;;;;5093889;27;20497;-82
2023/12/17 05:43:41;;;;;;;33.40;17.20;;;9.70;99.90;;;;;;5076580;27;20671;-85
2023/12/17 05:46:07;;;;;;;39.30;21.48;;;9.70;99.90;;;;;;5060344;27;20042;-77
2023/12/17 05:48:34;;;;;;;43.42;20.85;;;9.70;99.90;;;;;;5077302;28;20046;-86
2023/12/17 05:51:00;;;;;;;38.85;19.88;;;9.70;99.90;;;;;;5062722;27;20036;-81
2023/12/17 05:53:26;;;;;;;50.00;22.60;;;9.70;99.90;;;;;;5074905;27;20042;-81
2023/12/17 05:55:53;;;;;;;47.10;22.88;;;9.70;99.90;;;;;;5065974;28;20031;-76
2023/12/17 05:58:20;;;;;;;50.13;23.42;;;9.70;99.90;;;;;;5093817;27;20034;-79
2023/12/17 06:00:46;;;;;;;45.13;24.75;;;9.70;99.90;;;;;;5074004;27;20044;-80
2023/12/17 06:03:12;;;;;;;50.33;24.13;;;9.70;99.90;;;;;;5072865;28;20047;-82
2023/12/17 06:05:38;;;;;;;56.05;25.70;;;9.70;99.90;;;;;;5055917;27;20467;-82
2023/12/17 06:08:05;;;;;;;44.60;22.58;;;9.70;99.90;;;;;;5093583;27;20823;-85
2023/12/17 06:10:31;;;;;;;48.35;22.70;;;9.70;99.90;;;;;;5094907;27;20256;-81
2023/12/17 06:12:58;;;;;;;46.13;23.80;;;9.70;99.90;;;;;;5078020;28;20039;-83
2023/12/17 06:15:24;;;;;;;50.05;25.15;;;9.70;99.90;;;;;;5060434;27;20031;-79
2023/12/17 06:17:50;;;;;;;47.65;23.67;;;9.70;99.90;;;;;;5095454;27;20040;-79
2023/12/17 06:20:17;;;;;;;45.70;22.40;;;9.70;99.90;;;;;;5096181;27;20039;-82
2023/12/17 06:22:43;;;;;;;57.72;26.30;;;9.70;99.90;;;;;;5058991;28;20532;-80
2023/12/17 06:25:09;;;;;;;45.92;23.00;;;9.70;99.90;;;;;;5056022;27;20043;-82
2023/12/17 06:27:36;;;;;;;51.10;24.63;;;9.70;99.90;;;;;;5093222;27;20370;-79
2023/12/17 06:30:04;;;;;;;49.65;23.50;;;9.70;99.90;;;;;;5059290;28;20036;-81
2023/12/17 06:32:30;;;;;;;44.97;23.50;;;9.70;99.90;;;;;;5059941;27;20036;-81
2023/12/17 06:34:56;;;;;;;41.63;21.38;;;9.70;99.90;;;;;;5064546;28;20462;-85
2023/12/17 06:37:23;;;;;;;40.67;22.02;;;9.70;99.90;;;;;;5074374;28;20548;-75
2023/12/17 06:39:50;;;;;;;40.05;21.58;;;9.70;99.90;;;;;;5074424;27;20027;-80
2023/12/17 06:42:16;;;;;;;46.15;23.25;;;9.80;99.90;;;;;;5075387;27;20031;-87
2023/12/17 06:44:42;;;;;;;43.35;22.77;;;9.70;99.90;;;;;;5058156;28;20503;-83
2023/12/17 06:47:09;;;;;;;40.20;20.95;;;9.70;99.90;;;;;;5078022;27;20036;-82
2023/12/17 06:49:38;;;;;;;41.53;21.88;;;9.70;99.90;;;;;;5058967;27;20031;-81
2023/12/17 06:52:05;;;;;;;39.35;22.13;;;9.70;99.90;;;;;;5089295;27;20039;-75
2023/12/17 06:54:31;;;;;;;43.17;22.67;;;9.70;99.90;;;;;;5074297;28;20467;-77
2023/12/17 06:56:58;;;;;;;40.28;23.00;;;9.70;99.90;;;;;;5057302;28;20028;-81
2023/12/17 06:59:24;;;;;;;38.83;22.25;;;9.70;99.90;;;;;;5074189;28;20457;-87
2023/12/17 07:01:51;;;;;;;42.15;24.58;;;9.70;99.90;;;;;;5056679;28;20394;-82
2023/12/17 07:04:17;;;;;;;42.28;22.52;;;9.70;99.90;;;;;;5062157;28;20028;-82
2023/12/17 07:06:43;;;;;;;38.03;21.50;;;9.70;99.90;;;;;;5062847;28;20051;-76
2023/12/17 07:09:10;;;;;;;37.15;20.92;;;9.70;99.90;;;;;;5056921;27;22591;-75
2023/12/17 07:11:36;;;;;;;40.10;22.42;;;9.70;99.90;;;;;;5054598;27;20031;-86
2023/12/17 07:14:02;;;;;;;39.10;22.00;;;9.70;99.90;;;;;;5042659;27;20027;-84
2023/12/17 07:16:28;;;;;;;38.30;22.35;;;9.70;99.90;;;;;;5060372;28;20046;-81
2023/12/17 07:18:55;;;;;;;33.90;20.55;;;9.70;99.90;;;;;;5095966;27;20121;-75
2023/12/17 07:21:21;;;;;;;39.63;23.30;;;9.60;99.90;;;;;;5074339;28;20155;-82
2023/12/17 07:23:48;;;;;;;39.00;21.77;;;9.60;99.90;;;;;;5074265;28;20047;-83
2023/12/17 07:26:15;;;;;;;33.47;19.48;;;9.60;99.90;;;;;;5105013;27;20032;-84
2023/12/17 07:28:41;;;;;;;39.53;22.05;;;9.60;99.90;;;;;;5057463;28;20027;-75
2023/12/17 07:31:07;;;;;;;32.85;19.67;;;9.60;99.90;;;;;;5089990;27;20810;-84
2023/12/17 07:33:34;;;;;;;31.13;18.23;;;9.60;99.90;;;;;;5058146;28;20035;-87
2023/12/17 07:36:00;;;;;;;31.33;18.58;;;9.60;99.90;;;;;;5057494;28;20035;-81
2023/12/17 07:38:26;;;;;;;33.88;18.65;;;9.60;99.90;;;;;;5057469;28;20504;-82
2023/12/17 07:40:53;;;;;;;41.25;20.70;;;9.60;99.90;;;;;;5059167;27;20039;-81
2023/12/17 07:43:20;;;;;;;38.08;21.88;;;9.60;99.90;;;;;;5075611;28;20036;-86
2023/12/17 07:45:46;;;;;;;39.13;21.52;;;9.60;99.90;;;;;;5076381;28;20040;-86
2023/12/17 07:48:13;;;;;;;40.58;22.35;;;9.60;99.90;;;;;;5056690;28;20354;-86
2023/12/17 07:50:40;;;;;;;43.78;23.95;;;9.60;99.90;;;;;;5060815;27;20036;-85
2023/12/17 07:53:07;;;;;;;39.03;21.83;;;9.60;99.90;;;;;;5074068;27;20055;-87
2023/12/17 07:55:33;;;;;;;42.17;21.88;;;9.60;99.90;;;;;;5092580;27;20034;-86
2023/12/17 07:57:59;;;;;;;43.88;21.23;;;9.60;99.90;;;;;;5056682;28;20043;-84
2023/12/17 08:00:26;;;;;;;48.33;24.77;;;9.60;99.90;;;;;;5039168;27;20035;-84
2023/12/17 08:02:52;;;;;;;40.42;22.55;;;9.60;99.90;;;;;;5038443;28;20043;-81
2023/12/17 08:05:18;;;;;;;52.75;26.05;;;9.70;99.90;;;;;;5048116;28;21711;-86
2023/12/17 08:07:46;;;;;;;51.33;26.88;;;9.70;99.90;;;;;;5071272;28;20027;-80
2023/12/17 08:10:12;;;;;;;58.40;28.90;;;9.70;99.90;;;;;;5056804;27;20042;-80
2023/12/17 08:12:38;;;;;;;52.05;27.75;;;9.70;99.90;;;;;;5040599;28;20034;-76
2023/12/17 08:15:05;;;;;;;73.20;30.83;;;9.70;99.90;;;;;;5055766;28;20403;-85
2023/12/17 08:17:31;;;;;;;68.45;30.48;;;9.60;99.90;;;;;;5072647;28;20043;-87
2023/12/17 08:19:58;;;;;;;82.60;35.47;;;9.60;99.90;;;;;;5073734;28;20498;-83
2023/12/17 08:22:24;;;;;;;75.15;34.30;;;9.60;99.90;;;;;;5058781;28;20035;-84
2023/12/17 08:24:50;;;;;;;71.90;32.60;;;9.60;99.90;;;;;;5074153;28;20240;-75
2023/12/17 08:27:17;;;;;;;79.65;36.10;;;9.60;99.90;;;;;;5070967;28;21332;-85
2023/12/17 08:29:47;;;;;;;66.18;31.00;;;9.60;99.90;;;;;;5055084;28;20074;-83
2023/12/17 08:32:14;;;;;;;61.50;30.88;;;9.60;99.90;;;;;;5071432;28;20350;-84
2023/12/17 08:34:41;;;;;;;59.40;29.45;;;9.60;99.90;;;;;;5055528;28;20501;-84
2023/12/17 08:37:07;;;;;;;67.70;31.88;;;9.60;99.90;;;;;;5055321;28;20048;-83
2023/12/17 08:39:34;;;;;;;64.40;32.80;;;9.60;99.90;;;;;;5073091;28;20391;-84
2023/12/17 08:42:00;;;;;;;70.10;34.47;;;9.50;99.90;;;;;;5055925;28;20043;-85
2023/12/17 08:44:28;;;;;;;67.28;34.05;;;9.50;99.90;;;;;;5058674;28;20092;-82
2023/12/17 08:46:54;;;;;;;63.42;30.88;;;9.50;99.90;;;;;;5072092;28;20039;-87
2023/12/17 08:49:20;;;;;;;53.65;27.25;;;9.50;99.90;;;;;;5090009;28;20035;-79
2023/12/17 08:51:47;;;;;;;52.75;27.90;;;9.50;99.90;;;;;;5055944;28;20036;-82
2023/12/17 08:54:13;;;;;;;60.70;29.25;;;9.50;99.90;;;;;;5072081;28;20121;-83
2023/12/17 08:56:40;;;;;;;56.45;27.30;;;9.50;99.90;;;;;;5059295;28;20050;-81
2023/12/17 08:59:06;;;;;;;53.95;28.20;;;9.50;99.90;;;;;;5057939;28;20035;-75
2023/12/17 09:01:33;;;;;;;52.00;26.60;;;9.50;99.90;;;;;;5038113;28;20034;-77
2023/12/17 09:03:59;;;;;;;52.55;26.15;;;9.50;99.90;;;;;;5071508;28;20612;-79
2023/12/17 09:06:26;;;;;;;50.80;25.65;;;9.50;99.90;;;;;;5072370;28;20386;-83
2023/12/17 09:08:52;;;;;;;49.97;26.52;;;9.50;99.90;;;;;;5055315;28;20051;-81
2023/12/17 09:11:18;;;;;;;52.97;26.02;;;9.50;99.90;;;;;;5054794;28;20036;-80
2023/12/17 09:13:45;;;;;;;51.75;27.73;;;9.50;99.90;;;;;;5053214;28;20043;-84
2023/12/17 09:16:11;;;;;;;52.63;28.00;;;9.50;99.90;;;;;;5069454;28;20028;-80
2023/12/17 09:18:39;;;;;;;44.50;23.25;;;9.50;99.90;;;;;;5055904;28;20397;-84
2023/12/17 09:21:05;;;;;;;41.97;22.00;;;9.50;99.90;;;;;;5087929;28;20036;-76
2023/12/17 09:23:31;;;;;;;49.47;25.73;;;9.50;99.90;;;;;;5090299;28;20039;-82
2023/12/17 09:26:00;;;;;;;40.08;23.25;;;9.50;99.90;;;;;;5090289;28;20138;-87
2023/12/17 09:28:26;;;;;;;38.63;22.42;;;9.50;99.90;;;;;;5073868;28;20039;-76
2023/12/17 09:30:53;;;;;;;39.67;22.05;;;9.50;99.90;;;;;;5072695;28;20036;-85
2023/12/17 09:33:21;;;;;;;44.72;23.48;;;9.50;99.90;;;;;;5071591;28;20043;-86
2023/12/17 09:35:47;;;;;;;38.17;20.27;;;9.50;99.90;;;;;;5045961;28;20049;-81
2023/12/17 09:38:15;;;;;;;39.95;21.38;;;9.50;99.90;;;;;;5074928;28;20043;-84
2023/12/17 09:40:43;;;;;;;41.70;21.27;;;9.50;99.90;;;;;;5075198;27;20343;-81
2023/12/17 09:43:10;;;;;;;39.58;21.27;;;9.50;99.90;;;;;;5076603;27;20047;-79
2023/12/17 09:45:37;;;;;;;43.53;22.73;;;9.60;99.90;;;;;;5076190;28;20559;-81
2023/12/17 09:48:04;;;;;;;39.65;21.80;;;9.50;99.90;;;;;;5044052;27;20046;-78
2023/12/17 09:50:30;;;;;;;36.92;20.45;;;9.50;99.90;;;;;;5074731;27;20050;-75
2023/12/17 09:52:56;;;;;;;35.47;19.15;;;9.50;99.90;;;;;;5078525;28;20497;-77
2023/12/17 09:55:23;;;;;;;34.67;19.77;;;9.50;99.90;;;;;;5077543;27;20565;-75
2023/12/17 09:57:51;;;;;;;32.13;17.90;;;9.50;99.90;;;;;;5078577;28;20028;-87
2023/12/17 10:00:17;;;;;;;29.35;17.05;;;9.60;99.90;;;;;;5046687;27;20035;-82
2023/12/17 10:02:44;;;;;;;33.58;19.45;;;9.50;99.90;;;;;;5091910;27;22190;-84
2023/12/17 10:05:10;;;;;;;32.92;18.10;;;9.50;99.90;;;;;;5059200;27;20031;-87
2023/12/17 10:07:40;;;;;;;28.50;17.58;;;9.60;99.90;;;;;;5108751;27;20070;-87
2023/12/17 10:10:07;;;;;;;32.15;18.55;;;9.60;99.90;;;;;;5060243;27;20039;-86
2023/12/17 10:12:35;;;;;;;33.63;18.33;;;9.60;99.90;;;;;;5094258;27;20027;-85
2023/12/17 10:15:01;;;;;;;34.13;19.13;;;9.60;99.90;;;;;;5093745;27;20369;-84
2023/12/17 10:17:28;;;;;;;32.50;18.92;;;9.60;99.90;;;;;;5079088;28;20027;-81
2023/12/17 10:19:55;;;;;;;31.48;17.60;;;9.60;99.90;;;;;;5062096;28;20040;-82
2023/12/17 10:22:21;;;;;;;33.83;19.08;;;9.60;99.90;;;;;;5056362;28;20044;-83
2023/12/17 10:24:48;;;;;;;33.05;18.65;;;9.60;99.90;;;;;;5063367;27;20024;-80
2023/12/17 10:27:19;;;;;;;31.95;19.58;;;9.60;99.90;;;;;;5060399;28;20063;-81
2023/12/17 10:29:51;;;;;;;31.42;19.55;;;9.60;99.90;;;;;;5093872;27;20683;-77
2023/12/17 10:32:25;;;;;;;27.38;17.15;;;9.60;99.90;;;;;;5057601;28;20453;-84
2023/12/17 10:34:52;;;;;;;27.45;17.33;;;9.50;99.90;;;;;;5108552;27;20034;-85
2023/12/17 10:37:20;;;;;;;28.05;17.55;;;9.50;99.90;;;;;;5073114;28;20039;-82
2023/12/17 10:39:51;;;;;;;23.27;15.18;;;9.60;99.90;;;;;;5043763;28;20536;-83
2023/12/17 10:42:18;;;;;;;25.38;16.70;;;9.60;99.90;;;;;;5058496;28;20042;-83
2023/12/17 10:44:49;;;;;;;29.08;18.30;;;9.60;99.90;;;;;;5058146;28;20561;-75
2023/12/17 10:47:22;;;;;;;28.55;17.23;;;9.60;99.90;;;;;;5073947;28;20028;-81
2023/12/17 10:49:48;;;;;;;;;;;9.50;99.90;;;;;;5057306;28;20125;-83
2023/12/17 10:52:15;;;;;;;23.33;14.88;;;9.50;99.90;;;;;;5075778;28;19916;-84
2023/12/17 10:54:42;;;;;;;24.67;16.73;;;9.50;99.90;;;;;;5046428;27;20039;-86
2023/12/17 10:57:15;;;;;;;25.58;17.05;;;9.40;99.90;;;;;;5075345;28;20034;-78
2023/12/17 10:59:44;;;;;;;;;;;9.40;99.90;;;;;;5075899;27;20038;-86
2023/12/17 11:02:14;;;;;;;24.92;16.08;;;9.40;99.90;;;;;;5093702;27;19930;-79
2023/12/17 11:04:45;;;;;;;22.08;15.00;;;9.30;99.90;;;;;;5057306;27;20038;-85
2023/12/17 11:07:19;;;;;;;24.08;15.75;;;9.30;99.90;;;;;;5056960;27;20032;-85
2023/12/17 11:09:45;;;;;;;21.17;15.02;;;9.30;99.90;;;;;;5053780;28;20028;-79
2023/12/17 11:12:12;;;;;;;22.60;14.95;;;9.20;99.90;;;;;;5072861;27;20040;-80
2023/12/17 11:14:44;;;;;;;24.35;14.98;;;9.20;99.90;;;;;;5071277;28;20393;-87
2023/12/17 11:17:15;;;;;;;23.63;15.40;;;9.20;99.90;;;;;;5056127;28;20047;-83
2023/12/17 11:19:59;;;;;;;29.07;17.07;;;9.20;99.90;;;;;;5091807;27;20051;-80
2023/12/17 11:22:27;;;;;;;25.73;16.63;;;9.20;99.90;;;;;;5054518;27;20282;-85
2023/12/17 11:24:57;;;;;;;26.65;17.55;;;9.20;99.90;;;;;;5091441;27;20830;-85
2023/12/17 11:27:24;;;;;;;24.15;16.77;;;9.20;99.90;;;;;;5072249;27;20044;-81
2023/12/17 11:29:52;;;;;;;29.27;18.33;;;9.20;99.90;;;;;;5071634;28;20479;-86
2023/12/17 11:32:20;;;;;;;26.40;16.67;;;9.20;99.90;;;;;;5041629;27;20032;-77
2023/12/17 11:34:50;;;;;;;27.00;16.65;;;9.20;99.90;;;;;;5073184;27;20042;-84
2023/12/17 11:37:21;;;;;;;28.40;19.45;;;9.20;99.90;;;;;;5073882;28;20026;-84
2023/12/17 11:39:49;;;;;;;30.70;20.20;;;9.30;99.90;;;;;;5058463;28;20027;-78
2023/12/17 11:42:17;;;;;;;29.23;19.50;;;9.30;99.90;;;;;;5072667;28;20051;-85
2023/12/17 11:44:51;;;;;;;32.60;21.92;;;9.30;99.90;;;;;;5104954;27;20038;-79
2023/12/17 11:47:25;;;;;;;31.80;20.90;;;9.30;99.90;;;;;;5057467;28;20398;-87
2023/12/17 11:49:58;;;;;;;32.03;20.48;;;9.40;99.90;;;;;;5073313;28;20027;-81
2023/12/17 11:52:25;;;;;;;38.45;24.67;;;9.40;99.90;;;;;;5090329;27;20028;-83
2023/12/17 11:55:04;;;;;;;35.67;23.75;;;9.50;99.90;;;;;;5073035;28;20028;-86
2023/12/17 11:57:30;;;;;;;34.30;23.08;;;9.50;99.90;;;;;;5073517;27;20050;-86
2023/12/17 11:59:57;;;;;;;38.45;24.23;;;9.60;99.90;;;;;;5055007;28;20040;-84
2023/12/17 12:02:27;;;;;;;37.63;23.67;;;9.60;99.90;;;;;;5072374;28;20036;-76
2023/12/17 12:04:55;;;;;;;39.83;23.70;;;9.60;99.90;;;;;;5069697;28;20047;-84
2023/12/17 12:07:22;;;;;;;35.97;23.50;;;9.70;99.90;;;;;;5041615;28;20027;-83
2023/12/17 12:09:49;;;;;;;33.58;22.42;;;9.80;99.90;;;;;;5072982;28;20465;-83
2023/12/17 12:12:15;;;;;;;37.05;24.75;;;9.90;99.90;;;;;;5070735;27;20050;-83
2023/12/17 12:14:48;;;;;;;35.35;22.30;;;10.00;99.90;;;;;;5073474;28;20032;-81
2023/12/17 12:17:40;;;;;;;36.00;23.55;;;10.00;99.90;;;;;;5057643;28;20046;-81
2023/12/17 12:20:12;;;;;;;38.55;25.13;;;10.10;99.90;;;;;;5071737;28;20927;-80
2023/12/17 12:22:45;;;;;;;37.03;24.75;;;10.10;99.90;;;;;;5070499;28;21970;-83
2023/12/17 12:25:20;;;;;;;38.03;24.33;;;10.10;99.90;;;;;;5054742;28;20362;-81
2023/12/17 12:27:46;;;;;;;42.72;25.70;;;10.10;99.90;;;;;;5037876;28;20028;-82
2023/12/17 12:30:28;;;;;;;38.85;26.42;;;10.10;99.90;;;;;;5036850;28;20643;-79
2023/12/17 12:32:55;;;;;;;39.15;23.17;;;10.10;99.90;;;;;;5060295;28;20044;-81
2023/12/17 12:35:29;;;;;;;38.88;25.13;;;10.10;99.90;;;;;;5070320;28;20039;-82
2023/12/17 12:37:57;;;;;;;40.92;24.48;;;10.10;99.90;;;;;;5071705;28;20050;-82